Time,TemperatureF,DewpointF,PressureIn,WindDirection,WindDirectionDegrees,WindSpeedMPH,WindSpeedGustMPH,Humidity,HourlyPrecipIn,Conditions,Clouds,dailyrainin,SolarRadiationWatts/m^2,SoftwareType,DateUTC
2013-02-12 00:00:00,63.9,60.3,30.15,NNW,329,11.5,11.5,88,0.00,CLR,,0.00,0.0,WeatherDisplay:10.37,2013-02-12 10:00:00,
2013-02-12 00:05:00,64.0,60.4,30.15,North,355,10.4,10.4,88,0.00,CLR,,0.00,0.0,WeatherDisplay:10.37,2013-02-12 10:05:00,
2013-02-12 00:10:00,64.1,60.5,30.15,NNE,26,10.4,10.4,88,0.00,CLR,,0.00,0.0,WeatherDisplay:10.37,2013-02-12 10:10:00,
2013-02-12 00:15:00,64.1,60.5,30.15,NE,42,16.1,16.1,88,0.00,CLR,,0.00,0.0,WeatherDisplay:10.37,2013-02-12 10:15:00,
2013-02-12 00:20:00,64.1,60.2,30.14,North,351,9.2,9.2,87,0.00,CLR,,0.00,0.0,WeatherDisplay:10.37,2013-02-12 10:20:00,
2013-02-12 00:25:00,64.1,60.2,30.14,ENE,59,11.5,11.5,87,0.00,CLR,,0.00,0.0,WeatherDisplay:10.37,2013-02-12 10:25:00,
2013-02-12 00:30:00,64.1,60.2,30.14,North,5,11.5,11.5,87,0.00,CLR,,0.00,0.0,WeatherDisplay:10.37,2013-02-12 10:30:00,
2013-02-12 00:35:00,64.1,60.2,30.13,NE,51,9.2,9.2,87,0.00,CLR,,0.00,0.0,WeatherDisplay:10.37,2013-02-12 10:35:00,
2013-02-12 00:40:00,64.1,59.8,30.13,East,88,12.7,12.7,86,0.00,CLR,,0.00,0.0,WeatherDisplay:10.37,2013-02-12 10:40:00,
2013-02-12 00:45:00,64.1,59.5,30.13,NNW,333,10.4,10.4,85,0.00,CLR,,0.00,0.0,WeatherDisplay:10.37,2013-02-12 10:45:00,
2013-02-12 00:50:00,64.0,59.4,30.13,North,355,12.7,12.7,85,0.00,CLR,,0.00,0.0,WeatherDisplay:10.37,2013-02-12 10:50:00,
2013-02-12 00:55:00,64.1,59.2,30.13,ENE,65,16.1,16.1,84,0.00,CLR,,0.00,0.0,WeatherDisplay:10.37,2013-02-12 10:55:00,
2013-02-12 01:00:00,64.3,59.4,30.13,NNE,29,16.1,16.1,84,0.00,CLR,,0.00,0.0,WeatherDisplay:10.37,2013-02-12 11:00:00,
2013-02-12 01:05:00,64.4,59.1,30.13,NE,42,10.0,10.0,83,0.00,CLR,,0.00,0.0,WeatherDisplay:10.37,2013-02-12 11:05:00,
2013-02-12 01:10:00,64.4,59.1,30.13,NNE,13,11.0,11.0,83,0.00,CLR,,0.00,0.0,WeatherDisplay:10.37,2013-02-12 11:10:00,
2013-02-12 01:15:00,64.3,59.0,30.13,NNW,348,12.7,12.7,83,0.00,CLR,,0.00,0.0,WeatherDisplay:10.37,2013-02-12 11:15:00,
2013-02-12 01:20:00,64.3,59.0,30.13,ENE,76,11.5,11.5,83,0.00,CLR,,0.00,0.0,WeatherDisplay:10.37,2013-02-12 11:20:00,
2013-02-12 01:25:00,64.3,59.0,30.13,North,350,8.1,8.1,83,0.00,CLR,,0.00,0.0,WeatherDisplay:10.37,2013-02-12 11:25:00,
2013-02-12 01:30:00,64.4,59.1,30.13,NNE,25,8.1,8.1,83,0.00,CLR,,0.00,0.0,WeatherDisplay:10.37,2013-02-12 11:30:00,
2013-02-12 01:35:00,64.4,59.1,30.13,ENE,65,11.5,11.5,83,0.00,CLR,,0.00,0.0,WeatherDisplay:10.37,2013-02-12 11:35:00,
2013-02-12 01:40:00,64.4,59.1,30.13,NNW,340,9.2,9.2,83,0.00,CLR,,0.00,0.0,WeatherDisplay:10.37,2013-02-12 11:40:00,
2013-02-12 01:45:00,64.4,59.1,30.13,NNE,23,9.2,9.2,83,0.00,CLR,,0.00,0.0,WeatherDisplay:10.37,2013-02-12 11:45:00,
2013-02-12 01:50:00,64.4,59.1,30.13,NE,45,8.1,8.1,83,0.00,CLR,,0.00,0.0,WeatherDisplay:10.37,2013-02-12 11:50:00,
2013-02-12 01:55:00,64.4,59.1,30.13,ENE,75,9.2,9.2,83,0.00,CLR,,0.00,0.0,WeatherDisplay:10.37,2013-02-12 11:55:00,
2013-02-12 02:00:00,64.4,59.1,30.13,North,5,10.0,10.0,83,0.00,CLR,,0.00,0.0,WeatherDisplay:10.37,2013-02-12 12:00:00,
2013-02-12 02:05:00,64.4,59.1,30.13,ENE,63,6.9,6.9,83,0.00,CLR,,0.00,0.0,WeatherDisplay:10.37,2013-02-12 12:05:00,
2013-02-12 02:10:00,64.4,58.8,30.13,North,9,8.1,8.1,82,0.00,CLR,,0.00,0.0,WeatherDisplay:10.37,2013-02-12 12:10:00,
2013-02-12 02:15:00,64.4,58.8,30.13,North,355,10.4,10.4,82,0.00,CLR,,0.00,0.0,WeatherDisplay:10.37,2013-02-12 12:15:00,
2013-02-12 02:20:00,64.5,58.9,30.12,NNE,18,10.4,10.4,82,0.00,CLR,,0.00,0.0,WeatherDisplay:10.37,2013-02-12 12:20:00,
2013-02-12 02:25:00,64.5,58.9,30.12,ENE,67,13.8,13.8,82,0.00,CLR,,0.00,0.0,WeatherDisplay:10.37,2013-02-12 12:25:00,
2013-02-12 02:30:00,64.5,58.9,30.12,NNW,344,8.1,8.1,82,0.00,CLR,,0.00,0.0,WeatherDisplay:10.37,2013-02-12 12:30:00,
2013-02-12 02:35:00,64.5,58.9,30.12,NNE,22,7.0,7.0,82,0.00,CLR,,0.00,0.0,WeatherDisplay:10.37,2013-02-12 12:35:00,
2013-02-12 02:40:00,64.4,58.4,30.12,North,5,8.1,8.1,81,0.00,CLR,,0.00,0.0,WeatherDisplay:10.37,2013-02-12 12:40:00,
2013-02-12 02:45:00,64.4,58.4,30.12,NE,42,11.5,11.5,81,0.00,CLR,,0.00,0.0,WeatherDisplay:10.37,2013-02-12 12:45:00,
2013-02-12 02:50:00,64.4,58.4,30.12,NNE,22,6.9,6.9,81,0.00,CLR,,0.00,0.0,WeatherDisplay:10.37,2013-02-12 12:50:00,
2013-02-12 02:55:00,64.4,58.4,30.12,ENE,63,13.8,13.8,81,0.00,CLR,,0.00,0.0,WeatherDisplay:10.37,2013-02-12 12:55:00,
2013-02-12 03:00:00,64.4,58.1,30.12,NNE,29,8.1,8.1,80,0.00,CLR,,0.00,0.0,WeatherDisplay:10.37,2013-02-12 13:00:00,
2013-02-12 03:05:00,64.4,58.1,30.12,NW,323,11.5,11.5,80,0.00,CLR,,0.00,0.0,WeatherDisplay:10.37,2013-02-12 13:05:00,
2013-02-12 03:10:00,64.4,58.1,30.12,North,9,11.5,11.5,80,0.00,CLR,,0.00,0.0,WeatherDisplay:10.37,2013-02-12 13:10:00,
2013-02-12 03:15:00,64.4,58.1,30.12,NNW,344,4.6,4.6,80,0.00,CLR,,0.00,0.0,WeatherDisplay:10.37,2013-02-12 13:15:00,
2013-02-12 03:20:00,64.3,58.0,30.13,NE,56,6.9,6.9,80,0.00,CLR,,0.00,0.0,WeatherDisplay:10.37,2013-02-12 13:20:00,
2013-02-12 03:25:00,64.3,58.0,30.13,ENE,62,5.8,5.8,80,0.00,CLR,,0.00,0.0,WeatherDisplay:10.37,2013-02-12 13:25:00,
2013-02-12 03:30:00,64.2,57.5,30.12,North,5,9.2,9.2,79,0.00,CLR,,0.00,0.0,WeatherDisplay:10.37,2013-02-12 13:30:00,
2013-02-12 03:35:00,64.2,57.5,30.12,ENE,62,4.6,4.6,79,0.00,CLR,,0.00,0.0,WeatherDisplay:10.37,2013-02-12 13:35:00,
2013-02-12 03:40:00,64.1,57.5,30.12,North,355,10.4,10.4,79,0.00,CLR,,0.00,0.0,WeatherDisplay:10.37,2013-02-12 13:40:00,
2013-02-12 03:45:00,64.1,57.5,30.12,East,81,11.5,11.5,79,0.00,CLR,,0.00,0.0,WeatherDisplay:10.37,2013-02-12 13:45:00,
2013-02-12 03:50:00,64.1,57.5,30.12,East,86,8.1,8.1,79,0.00,CLR,,0.00,0.0,WeatherDisplay:10.37,2013-02-12 13:50:00,
2013-02-12 03:55:00,64.1,57.5,30.12,North,5,10.4,10.4,79,0.00,CLR,,0.00,0.0,WeatherDisplay:10.37,2013-02-12 13:55:00,
2013-02-12 04:00:00,64.1,57.5,30.12,North,5,10.4,10.4,79,0.00,CLR,,0.00,0.0,WeatherDisplay:10.37,2013-02-12 14:00:00,
2013-02-12 04:05:00,64.0,57.4,30.12,ENE,73,12.7,12.7,79,0.00,CLR,,0.00,0.0,WeatherDisplay:10.37,2013-02-12 14:05:00,
2013-02-12 04:10:00,63.9,56.9,30.12,NNE,12,6.9,6.9,78,0.00,CLR,,0.00,0.0,WeatherDisplay:10.37,2013-02-12 14:10:00,
2013-02-12 04:15:00,63.9,56.9,30.12,ENE,74,8.0,8.0,78,0.00,CLR,,0.00,0.0,WeatherDisplay:10.37,2013-02-12 14:15:00,
2013-02-12 04:20:00,63.9,56.9,30.12,North,5,7.0,7.0,78,0.00,CLR,,0.00,0.0,WeatherDisplay:10.37,2013-02-12 14:20:00,
2013-02-12 04:25:00,63.9,56.5,30.12,NE,37,10.4,10.4,77,0.00,CLR,,0.00,0.0,WeatherDisplay:10.37,2013-02-12 14:25:00,
2013-02-12 04:30:00,63.9,56.5,30.12,NNE,14,8.1,8.1,77,0.00,CLR,,0.00,0.0,WeatherDisplay:10.37,2013-02-12 14:30:00,
2013-02-12 04:35:00,63.9,56.5,30.11,ENE,64,11.5,11.5,77,0.00,CLR,,0.00,0.0,WeatherDisplay:10.37,2013-02-12 14:35:00,
2013-02-12 04:40:00,63.9,56.2,30.12,NNE,21,9.2,9.2,76,0.00,CLR,,0.00,0.0,WeatherDisplay:10.37,2013-02-12 14:40:00,
2013-02-12 04:45:00,63.9,55.8,30.11,NNW,344,7.0,7.0,75,0.00,CLR,,0.00,0.0,WeatherDisplay:10.37,2013-02-12 14:45:00,
2013-02-12 04:50:00,63.8,55.7,30.11,ENE,57,9.2,9.2,75,0.00,CLR,,0.00,0.0,WeatherDisplay:10.37,2013-02-12 14:50:00,
2013-02-12 04:55:00,63.7,55.3,30.11,North,11,5.8,5.8,74,0.00,CLR,,0.00,0.0,WeatherDisplay:10.37,2013-02-12 14:55:00,
2013-02-12 05:00:00,63.6,55.2,30.11,NNE,17,7.0,7.0,74,0.00,CLR,,0.00,0.0,WeatherDisplay:10.37,2013-02-12 15:00:00,
2013-02-12 05:05:00,63.6,54.8,30.10,NE,40,6.9,6.9,73,0.00,CLR,,0.00,0.0,WeatherDisplay:10.37,2013-02-12 15:05:00,
2013-02-12 05:10:00,63.7,54.5,30.10,NE,55,9.2,9.2,72,0.00,CLR,,0.00,0.0,WeatherDisplay:10.37,2013-02-12 15:10:00,
2013-02-12 05:15:00,63.7,54.5,30.10,NNW,348,9.2,9.2,72,0.00,CLR,,0.00,0.0,WeatherDisplay:10.37,2013-02-12 15:15:00,
2013-02-12 05:20:00,63.7,54.5,30.10,NE,46,10.4,10.4,72,0.00,CLR,,0.00,0.0,WeatherDisplay:10.37,2013-02-12 15:20:00,
2013-02-12 05:25:00,63.7,54.5,30.10,NNE,24,6.0,6.0,72,0.00,CLR,,0.00,0.0,WeatherDisplay:10.37,2013-02-12 15:25:00,
2013-02-12 05:30:00,63.6,54.4,30.10,NE,40,4.6,4.6,72,0.00,CLR,,0.00,0.0,WeatherDisplay:10.37,2013-02-12 15:30:00,
2013-02-12 05:35:00,63.6,54.4,30.10,NE,56,4.6,5.0,72,0.00,CLR,,0.00,0.0,WeatherDisplay:10.37,2013-02-12 15:35:00,
2013-02-12 05:40:00,63.5,54.7,30.10,North,9,12.7,12.7,73,0.00,CLR,,0.00,0.0,WeatherDisplay:10.37,2013-02-12 15:40:00,
2013-02-12 05:45:00,63.5,55.1,30.10,NNE,33,8.1,8.1,74,0.00,CLR,,0.00,0.0,WeatherDisplay:10.37,2013-02-12 15:45:00,
2013-02-12 05:50:00,63.6,55.2,30.10,NNE,32,10.4,10.4,74,0.00,CLR,,0.00,0.0,WeatherDisplay:10.37,2013-02-12 15:50:00,
2013-02-12 05:55:00,63.8,55.4,30.10,ENE,61,8.1,8.1,74,0.00,CLR,,0.00,0.0,WeatherDisplay:10.37,2013-02-12 15:55:00,
2013-02-12 06:00:00,63.9,55.8,30.10,NE,38,10.4,10.4,75,0.00,CLR,,0.00,0.0,WeatherDisplay:10.37,2013-02-12 16:00:00,
2013-02-12 06:05:00,63.9,55.8,30.10,ENE,63,11.5,11.5,75,0.00,CLR,,0.00,0.0,WeatherDisplay:10.37,2013-02-12 16:05:00,
2013-02-12 06:10:00,63.9,55.8,30.10,East,86,4.6,4.6,75,0.00,CLR,,0.00,0.0,WeatherDisplay:10.37,2013-02-12 16:10:00,
2013-02-12 06:15:00,63.8,56.1,30.10,NNE,29,5.8,5.8,76,0.00,CLR,,0.00,0.0,WeatherDisplay:10.37,2013-02-12 16:15:00,
2013-02-12 06:20:00,63.8,56.1,30.11,NNE,21,9.2,9.2,76,0.00,CLR,,0.00,0.0,WeatherDisplay:10.37,2013-02-12 16:20:00,
2013-02-12 06:25:00,63.9,56.2,30.11,ENE,64,10.4,10.4,76,0.00,CLR,,0.00,0.0,WeatherDisplay:10.37,2013-02-12 16:25:00,
2013-02-12 06:30:00,64.0,56.6,30.11,ENE,59,10.4,10.4,77,0.00,CLR,,0.00,0.0,WeatherDisplay:10.37,2013-02-12 16:30:00,
2013-02-12 06:35:00,64.0,56.6,30.12,NNE,21,10.4,10.4,77,0.00,CLR,,0.00,0.0,WeatherDisplay:10.37,2013-02-12 16:35:00,
2013-02-12 06:40:00,64.0,56.6,30.12,NE,53,8.1,8.1,77,0.00,CLR,,0.00,0.0,WeatherDisplay:10.37,2013-02-12 16:40:00,
2013-02-12 06:45:00,64.0,57.0,30.12,ENE,70,8.1,8.1,78,0.00,CLR,,0.00,0.0,WeatherDisplay:10.37,2013-02-12 16:45:00,
2013-02-12 06:50:00,64.1,57.1,30.12,North,9,17.0,17.0,78,0.00,CLR,,0.00,0.0,WeatherDisplay:10.37,2013-02-12 16:50:00,
2013-02-12 06:55:00,64.1,57.1,30.13,North,351,9.2,9.2,78,0.00,CLR,,0.00,0.0,WeatherDisplay:10.37,2013-02-12 16:55:00,
2013-02-12 07:00:00,64.3,57.3,30.13,NE,52,6.9,6.9,78,0.00,CLR,,0.00,0.0,WeatherDisplay:10.37,2013-02-12 17:00:00,
2013-02-12 07:05:00,64.3,57.3,30.13,NNE,19,6.9,6.9,78,0.00,CLR,,0.00,0.0,WeatherDisplay:10.37,2013-02-12 17:05:00,
2013-02-12 07:10:00,64.4,57.4,30.13,ENE,66,9.2,9.2,78,0.00,SCT,,0.00,5.0,WeatherDisplay:10.37,2013-02-12 17:10:00,
2013-02-12 07:15:00,64.5,57.5,30.13,NE,51,8.1,8.1,78,0.00,BKN,,0.00,7.0,WeatherDisplay:10.37,2013-02-12 17:15:00,
2013-02-12 07:20:00,64.5,57.5,30.13,NNE,28,6.9,6.9,78,0.00,BKN,,0.00,14.0,WeatherDisplay:10.37,2013-02-12 17:20:00,
2013-02-12 07:25:00,64.5,57.5,30.13,ENE,61,5.8,5.8,78,0.00,BKN,,0.00,18.0,WeatherDisplay:10.37,2013-02-12 17:25:00,
2013-02-12 07:30:00,64.5,57.8,30.13,NNE,28,9.2,9.2,79,0.00,BKN,,0.00,21.0,WeatherDisplay:10.37,2013-02-12 17:30:00,
2013-02-12 07:35:00,64.6,57.9,30.13,NNE,18,6.9,6.9,79,0.00,BKN,,0.00,26.0,WeatherDisplay:10.37,2013-02-12 17:35:00,
2013-02-12 07:40:00,64.6,57.9,30.14,North,9,6.9,6.9,79,0.00,BKN,,0.00,40.0,WeatherDisplay:10.37,2013-02-12 17:40:00,
2013-02-12 07:45:00,64.7,58.4,30.14,NE,45,7.0,7.0,80,0.00,SCT,,0.00,56.0,WeatherDisplay:10.37,2013-02-12 17:45:00,
2013-02-12 07:50:00,64.7,58.4,30.14,NE,55,10.4,10.4,80,0.00,SCT,,0.00,63.0,WeatherDisplay:10.37,2013-02-12 17:50:00,
2013-02-12 07:55:00,64.7,58.4,30.14,NE,42,9.2,9.2,80,0.00,SCT,,0.00,70.0,WeatherDisplay:10.37,2013-02-12 17:55:00,
2013-02-12 08:00:00,64.8,58.5,30.14,ENE,65,5.8,5.8,80,0.00,SCT,,0.00,81.0,WeatherDisplay:10.37,2013-02-12 18:00:00,
2013-02-12 08:05:00,64.7,58.4,30.14,NNE,13,5.0,5.0,80,0.00,SCT,,0.00,90.0,WeatherDisplay:10.37,2013-02-12 18:05:00,
2013-02-12 08:10:00,64.8,58.5,30.14,ENE,78,4.6,4.6,80,0.00,SCT,,0.00,98.0,WeatherDisplay:10.37,2013-02-12 18:10:00,
2013-02-12 08:15:00,64.9,58.6,30.14,NNE,32,10.4,10.4,80,0.00,SCT,,0.00,107.0,WeatherDisplay:10.37,2013-02-12 18:15:00,
2013-02-12 08:20:00,65.0,58.7,30.14,North,360,10.4,10.4,80,0.00,BKN,,0.00,90.0,WeatherDisplay:10.37,2013-02-12 18:20:00,
2013-02-12 08:25:00,65.0,58.7,30.14,North,355,6.9,6.9,80,0.00,BKN,,0.00,84.0,WeatherDisplay:10.37,2013-02-12 18:25:00,
2013-02-12 08:30:00,65.0,58.7,30.14,NNE,32,9.2,9.2,80,0.00,BKN,,0.00,102.0,WeatherDisplay:10.37,2013-02-12 18:30:00,
2013-02-12 08:35:00,65.1,58.8,30.14,NE,40,9.2,9.2,80,0.00,BKN,,0.00,109.0,WeatherDisplay:10.37,2013-02-12 18:35:00,
2013-02-12 08:40:00,65.2,58.9,30.14,ENE,66,7.0,7.0,80,0.00,CLR,,0.00,186.0,WeatherDisplay:10.37,2013-02-12 18:40:00,
2013-02-12 08:45:00,65.5,59.2,30.14,North,360,8.0,8.0,80,0.00,SCT,,0.00,153.0,WeatherDisplay:10.37,2013-02-12 18:45:00,
2013-02-12 08:50:00,65.7,59.0,30.14,ENE,60,6.9,6.9,79,0.00,CLR,,0.00,316.0,WeatherDisplay:10.37,2013-02-12 18:50:00,
2013-02-12 08:55:00,65.8,59.1,30.14,ENE,73,9.2,9.2,79,0.00,BKN,,0.00,121.0,WeatherDisplay:10.37,2013-02-12 18:55:00,
2013-02-12 09:00:00,66.1,59.4,30.14,East,88,4.6,4.6,79,0.00,CLR,,0.00,504.0,WeatherDisplay:10.37,2013-02-12 19:00:00,
2013-02-12 09:05:00,66.7,60.0,30.14,North,355,6.9,6.9,79,0.00,CLR,,0.00,281.0,WeatherDisplay:10.37,2013-02-12 19:05:00,
2013-02-12 09:10:00,67.1,59.6,30.14,ENE,57,8.1,8.1,77,0.00,CLR,,0.00,348.0,WeatherDisplay:10.37,2013-02-12 19:10:00,
2013-02-12 09:15:00,67.2,59.7,30.14,NNE,30,5.8,5.8,77,0.00,BKN,,0.00,179.0,WeatherDisplay:10.37,2013-02-12 19:15:00,
2013-02-12 09:20:00,67.1,59.6,30.14,ENE,78,3.5,3.5,77,0.00,BKN,,0.00,185.0,WeatherDisplay:10.37,2013-02-12 19:20:00,
2013-02-12 09:25:00,67.0,59.5,30.15,ENE,59,9.2,9.2,77,0.00,BKN,,0.00,169.0,WeatherDisplay:10.37,2013-02-12 19:25:00,
2013-02-12 09:30:00,66.8,59.4,30.15,ENE,59,9.0,9.0,77,0.00,BKN,,0.00,199.0,WeatherDisplay:10.37,2013-02-12 19:30:00,
2013-02-12 09:35:00,66.8,59.7,30.15,NE,49,8.1,8.1,78,0.00,CLR,,0.00,323.0,WeatherDisplay:10.37,2013-02-12 19:35:00,
2013-02-12 09:40:00,66.9,59.8,30.15,ENE,58,8.0,8.0,78,0.00,CLR,,0.00,322.0,WeatherDisplay:10.37,2013-02-12 19:40:00,
2013-02-12 09:45:00,67.4,60.3,30.14,NE,44,9.2,9.2,78,0.00,CLR,,0.00,297.0,WeatherDisplay:10.37,2013-02-12 19:45:00,
2013-02-12 09:50:00,67.8,60.3,30.14,East,86,10.4,10.4,77,0.00,BKN,,0.00,229.0,WeatherDisplay:10.37,2013-02-12 19:50:00,
2013-02-12 09:55:00,68.1,60.2,30.14,NE,53,11.5,11.5,76,0.00,SCT,,0.00,292.0,WeatherDisplay:10.37,2013-02-12 19:55:00,
2013-02-12 10:00:00,68.6,60.7,30.15,ENE,74,10.4,10.4,76,0.00,CLR,,0.00,529.0,WeatherDisplay:10.37,2013-02-12 20:00:00,
2013-02-12 10:05:00,68.8,60.2,30.15,ENE,64,10.4,10.4,74,0.00,OVC,,0.00,160.0,WeatherDisplay:10.37,2013-02-12 20:05:00,
2013-02-12 10:10:00,68.5,59.9,30.14,NE,46,8.1,8.1,74,0.00,CLR,,0.00,707.0,WeatherDisplay:10.37,2013-02-12 20:10:00,
2013-02-12 10:15:00,68.5,59.5,30.15,North,5,11.5,11.5,73,0.00,BKN,,0.00,255.0,WeatherDisplay:10.37,2013-02-12 20:15:00,
2013-02-12 10:20:00,68.5,59.5,30.15,NNE,21,9.2,9.2,73,0.00,SCT,,0.00,301.0,WeatherDisplay:10.37,2013-02-12 20:20:00,
2013-02-12 10:25:00,68.7,60.1,30.15,North,5,11.5,11.5,74,0.00,SCT,,0.00,338.0,WeatherDisplay:10.37,2013-02-12 20:25:00,
2013-02-12 10:30:00,68.9,59.5,30.15,NNE,19,6.9,6.9,72,0.00,SCT,,0.00,338.0,WeatherDisplay:10.37,2013-02-12 20:30:00,
2013-02-12 10:35:00,69.1,59.3,30.15,NNE,31,9.2,9.2,71,0.00,BKN,,0.00,306.0,WeatherDisplay:10.37,2013-02-12 20:35:00,
2013-02-12 10:40:00,69.3,59.1,30.15,NE,54,11.5,11.5,70,0.00,BKN,,0.00,267.0,WeatherDisplay:10.37,2013-02-12 20:40:00,
2013-02-12 10:45:00,69.2,59.0,30.15,ESE,122,8.1,8.1,70,0.00,BKN,,0.00,250.0,WeatherDisplay:10.37,2013-02-12 20:45:00,
2013-02-12 10:50:00,69.2,59.4,30.15,ESE,106,7.0,7.0,71,0.00,FEW,,0.00,445.0,WeatherDisplay:10.37,2013-02-12 20:50:00,
2013-02-12 10:55:00,69.4,59.6,30.15,NE,51,12.7,12.7,71,0.00,CLR,,0.00,497.0,WeatherDisplay:10.37,2013-02-12 20:55:00,
2013-02-12 11:00:00,69.4,59.6,30.15,NE,53,11.5,11.5,71,0.00,BKN,,0.00,343.0,WeatherDisplay:10.37,2013-02-12 21:00:00,
2013-02-12 11:05:00,69.3,59.9,30.14,West,276,6.9,6.9,72,0.00,SCT,,0.00,427.0,WeatherDisplay:10.37,2013-02-12 21:05:00,
2013-02-12 11:10:00,69.7,59.9,30.14,NE,38,8.1,8.1,71,0.00,CLR,,0.00,925.0,WeatherDisplay:10.37,2013-02-12 21:10:00,
2013-02-12 11:15:00,70.3,59.6,30.14,East,81,11.5,11.5,69,0.00,CLR,,0.00,879.0,WeatherDisplay:10.37,2013-02-12 21:15:00,
2013-02-12 11:20:00,70.6,59.9,30.13,ENE,60,6.9,6.9,69,0.00,SCT,,0.00,448.0,WeatherDisplay:10.37,2013-02-12 21:20:00,
2013-02-12 11:25:00,70.8,59.7,30.13,NNE,24,11.5,11.5,68,0.00,SCT,,0.00,401.0,WeatherDisplay:10.37,2013-02-12 21:25:00,
2013-02-12 11:30:00,70.5,60.2,30.13,NE,47,9.2,9.2,70,0.00,CLR,,0.00,691.0,WeatherDisplay:10.37,2013-02-12 21:30:00,
2013-02-12 11:35:00,70.8,60.9,30.13,NE,40,11.5,11.5,71,0.00,CLR,,0.00,1030.0,WeatherDisplay:10.37,2013-02-12 21:35:00,
2013-02-12 11:40:00,70.9,61.0,30.13,NNE,28,11.5,11.5,71,0.00,CLR,,0.00,951.0,WeatherDisplay:10.37,2013-02-12 21:40:00,
2013-02-12 11:45:00,71.1,61.2,30.12,East,86,11.5,11.5,71,0.00,FEW,,0.00,512.0,WeatherDisplay:10.37,2013-02-12 21:45:00,
2013-02-12 11:50:00,70.8,60.9,30.12,NE,50,8.1,8.1,71,0.00,BKN,,0.00,336.0,WeatherDisplay:10.37,2013-02-12 21:50:00,
2013-02-12 11:55:00,70.3,60.8,30.12,NNE,31,9.2,9.2,72,0.00,SCT,,0.00,461.0,WeatherDisplay:10.37,2013-02-12 21:55:00,
2013-02-12 12:00:00,70.1,61.0,30.11,NNE,19,9.0,9.0,73,0.00,CLR,,0.00,1095.0,WeatherDisplay:10.37,2013-02-12 22:00:00,
2013-02-12 12:05:00,70.4,61.7,30.11,NNW,343,9.2,9.2,74,0.00,CLR,,0.00,1065.0,WeatherDisplay:10.37,2013-02-12 22:05:00,
2013-02-12 12:10:00,70.4,61.3,30.11,NNE,31,8.1,8.1,73,0.00,BKN,,0.00,253.0,WeatherDisplay:10.37,2013-02-12 22:10:00,
2013-02-12 12:15:00,70.7,61.6,30.11,ENE,63,4.0,4.0,73,0.00,CLR,,0.00,1243.0,WeatherDisplay:10.37,2013-02-12 22:15:00,
2013-02-12 12:20:00,70.9,61.0,30.11,NE,39,11.5,11.5,71,0.00,BKN,,0.00,380.0,WeatherDisplay:10.37,2013-02-12 22:20:00,
2013-02-12 12:25:00,70.8,60.9,30.11,East,97,9.2,9.2,71,0.00,BKN,,0.00,357.0,WeatherDisplay:10.37,2013-02-12 22:25:00,
2013-02-12 12:30:00,71.1,61.2,30.11,ESE,113,11.5,11.5,71,0.00,BKN,,0.00,346.0,WeatherDisplay:10.37,2013-02-12 22:30:00,
2013-02-12 12:35:00,71.2,60.9,30.10,NNE,27,10.4,10.4,70,0.00,CLR,,0.00,1178.0,WeatherDisplay:10.37,2013-02-12 22:35:00,
2013-02-12 12:40:00,71.7,61.0,30.10,ESE,107,8.1,8.1,69,0.00,CLR,,0.00,1181.0,WeatherDisplay:10.37,2013-02-12 22:40:00,
2013-02-12 12:45:00,72.3,61.1,30.10,East,80,11.5,11.5,68,0.00,CLR,,0.00,1181.0,WeatherDisplay:10.37,2013-02-12 22:45:00,
2013-02-12 12:50:00,72.5,60.9,30.10,NNE,20,8.1,8.1,67,0.00,SCT,,0.00,448.0,WeatherDisplay:10.37,2013-02-12 22:50:00,
2013-02-12 12:55:00,72.5,60.5,30.10,ESE,107,11.5,11.5,66,0.00,SCT,,0.00,448.0,WeatherDisplay:10.37,2013-02-12 22:55:00,
2013-02-12 13:00:00,72.5,60.9,30.10,East,88,5.8,5.8,67,0.00,FEW,,0.00,522.0,WeatherDisplay:10.37,2013-02-12 23:00:00,
2013-02-12 13:05:00,72.4,60.8,30.09,East,86,5.8,5.8,67,0.00,BKN,,0.00,394.0,WeatherDisplay:10.37,2013-02-12 23:05:00,
2013-02-12 13:10:00,72.2,60.2,30.09,ENE,66,7.0,7.0,66,0.00,BKN,,0.00,378.0,WeatherDisplay:10.37,2013-02-12 23:10:00,
2013-02-12 13:15:00,72.1,60.5,30.09,North,11,7.0,7.0,67,0.00,SCT,,0.00,494.0,WeatherDisplay:10.37,2013-02-12 23:15:00,
2013-02-12 13:20:00,72.3,59.9,30.08,East,89,8.1,8.1,65,0.00,SCT,,0.00,494.0,WeatherDisplay:10.37,2013-02-12 23:20:00,
2013-02-12 13:25:00,72.4,59.1,30.08,NE,47,9.2,9.2,63,0.00,SCT,,0.00,429.0,WeatherDisplay:10.37,2013-02-12 23:25:00,
2013-02-12 13:30:00,72.3,59.4,30.08,NNE,17,13.8,13.8,64,0.00,FEW,,0.00,508.0,WeatherDisplay:10.37,2013-02-12 23:30:00,
2013-02-12 13:35:00,72.5,59.6,30.08,NE,46,8.1,8.1,64,0.00,SCT,,0.00,482.0,WeatherDisplay:10.37,2013-02-12 23:35:00,
2013-02-12 13:40:00,72.5,59.6,30.08,ENE,58,6.9,6.9,64,0.00,BKN,,0.00,394.0,WeatherDisplay:10.37,2013-02-12 23:40:00,
2013-02-12 13:45:00,72.1,59.7,30.08,ENE,78,13.0,13.0,65,0.00,BKN,,0.00,325.0,WeatherDisplay:10.37,2013-02-12 23:45:00,
2013-02-12 13:50:00,71.9,59.9,30.08,NE,53,10.4,10.4,66,0.00,BKN,,0.00,390.0,WeatherDisplay:10.37,2013-02-12 23:50:00,
2013-02-12 13:55:00,71.5,60.0,30.07,East,84,8.1,8.1,67,0.00,SCT,,0.00,401.0,WeatherDisplay:10.37,2013-02-12 23:55:00,
2013-02-12 14:00:00,71.5,60.0,30.07,ENE,76,10.4,10.4,67,0.00,SCT,,0.00,439.0,WeatherDisplay:10.37,2013-02-13 00:00:00,
2013-02-12 14:05:00,71.4,60.7,30.08,East,101,8.1,8.1,69,0.00,BKN,,0.00,359.0,WeatherDisplay:10.37,2013-02-13 00:05:00,
2013-02-12 14:10:00,71.1,60.8,30.08,NE,35,8.1,8.1,70,0.00,CLR,,0.00,628.0,WeatherDisplay:10.37,2013-02-13 00:10:00,
2013-02-12 14:15:00,70.3,60.8,30.08,NE,50,10.4,10.4,72,0.00,SCT,,0.00,438.0,WeatherDisplay:10.37,2013-02-13 00:15:00,
2013-02-12 14:20:00,69.7,61.4,30.08,NNE,15,8.1,8.1,75,0.00,SCT,,0.00,471.0,WeatherDisplay:10.37,2013-02-13 00:20:00,
2013-02-12 14:25:00,69.1,61.2,30.08,NE,49,9.0,9.0,76,0.00,CLR,,0.00,773.0,WeatherDisplay:10.37,2013-02-13 00:25:00,
2013-02-12 14:30:00,69.0,61.1,30.07,NE,46,11.5,11.5,76,0.00,SCT,,0.00,429.0,WeatherDisplay:10.37,2013-02-13 00:30:00,
2013-02-12 14:35:00,69.1,61.2,30.07,ENE,59,11.0,11.0,76,0.00,CLR,,0.00,643.0,WeatherDisplay:10.37,2013-02-13 00:35:00,
2013-02-12 14:40:00,69.4,61.1,30.07,NE,51,11.5,11.5,75,0.00,FEW,,0.00,462.0,WeatherDisplay:10.37,2013-02-13 00:40:00,
2013-02-12 14:45:00,69.5,61.2,30.07,NNE,19,7.0,7.0,75,0.00,SCT,,0.00,413.0,WeatherDisplay:10.37,2013-02-13 00:45:00,
2013-02-12 14:50:00,69.6,61.3,30.06,North,355,6.0,6.0,75,0.00,FEW,,0.00,413.0,WeatherDisplay:10.37,2013-02-13 00:50:00,
2013-02-12 14:55:00,69.8,61.5,30.06,NE,47,12.7,12.7,75,0.00,CLR,,0.00,563.0,WeatherDisplay:10.37,2013-02-13 00:55:00,
2013-02-12 15:00:00,70.0,61.3,30.06,North,355,9.2,9.2,74,0.00,CLR,,0.00,1018.0,WeatherDisplay:10.37,2013-02-13 01:00:00,
2013-02-12 15:05:00,70.5,61.4,30.06,East,86,8.0,8.0,73,0.00,SCT,,0.00,353.0,WeatherDisplay:10.37,2013-02-13 01:05:00,
2013-02-12 15:10:00,70.4,61.3,30.05,NNE,26,8.1,8.1,73,0.00,CLR,,0.00,413.0,WeatherDisplay:10.37,2013-02-13 01:10:00,
2013-02-12 15:15:00,70.3,61.2,30.05,NE,46,9.2,9.2,73,0.00,SCT,,0.00,295.0,WeatherDisplay:10.37,2013-02-13 01:15:00,
2013-02-12 15:20:00,70.0,60.9,30.05,ENE,59,10.4,10.4,73,0.00,CLR,,0.00,599.0,WeatherDisplay:10.37,2013-02-13 01:20:00,
2013-02-12 15:25:00,70.0,61.3,30.05,NE,34,11.5,11.5,74,0.00,CLR,,0.00,438.0,WeatherDisplay:10.37,2013-02-13 01:25:00,
2013-02-12 15:30:00,69.9,60.8,30.06,NE,55,10.4,10.4,73,0.00,SCT,,0.00,313.0,WeatherDisplay:10.37,2013-02-13 01:30:00,
2013-02-12 15:35:00,69.6,60.9,30.05,ENE,74,8.1,8.1,74,0.00,CLR,,0.00,425.0,WeatherDisplay:10.37,2013-02-13 01:35:00,
2013-02-12 15:40:00,69.6,60.9,30.05,NNE,15,8.1,8.1,74,0.00,CLR,,0.00,439.0,WeatherDisplay:10.37,2013-02-13 01:40:00,
2013-02-12 15:45:00,69.5,61.2,30.05,NE,46,11.5,11.5,75,0.00,CLR,,0.00,455.0,WeatherDisplay:10.37,2013-02-13 01:45:00,
2013-02-12 15:50:00,69.5,60.8,30.05,North,360,8.1,8.1,74,0.00,BKN,,0.00,227.0,WeatherDisplay:10.37,2013-02-13 01:50:00,
2013-02-12 15:55:00,69.3,61.0,30.05,NNE,26,11.5,11.5,75,0.00,BKN,,0.00,199.0,WeatherDisplay:10.37,2013-02-13 01:55:00,
2013-02-12 16:00:00,68.9,60.6,30.05,ENE,68,11.5,11.5,75,0.00,OVC,,0.00,137.0,WeatherDisplay:10.37,2013-02-13 02:00:00,
2013-02-12 16:05:00,68.6,60.7,30.05,ENE,58,8.1,8.1,76,0.00,BKN,,0.00,178.0,WeatherDisplay:10.37,2013-02-13 02:05:00,
2013-02-12 16:10:00,68.4,60.9,30.04,NNE,31,7.0,7.0,77,0.00,BKN,,0.00,179.0,WeatherDisplay:10.37,2013-02-13 02:10:00,
2013-02-12 16:15:00,68.3,60.8,30.05,North,5,10.4,10.4,77,0.00,BKN,,0.00,193.0,WeatherDisplay:10.37,2013-02-13 02:15:00,
2013-02-12 16:20:00,68.1,61.0,30.04,NE,51,11.5,11.5,78,0.00,BKN,,0.00,134.0,WeatherDisplay:10.37,2013-02-13 02:20:00,
2013-02-12 16:25:00,67.7,60.6,30.04,ENE,61,9.2,9.2,78,0.00,BKN,,0.00,176.0,WeatherDisplay:10.37,2013-02-13 02:25:00,
2013-02-12 16:30:00,67.4,61.0,30.04,NNE,15,6.9,6.9,80,0.00,SCT,,0.00,193.0,WeatherDisplay:10.37,2013-02-13 02:30:00,
2013-02-12 16:35:00,66.8,60.8,30.04,ENE,67,9.2,9.2,81,0.00,SCT,,0.00,174.0,WeatherDisplay:10.37,2013-02-13 02:35:00,
2013-02-12 16:40:00,66.2,60.5,30.04,NNE,12,6.9,6.9,82,0.00,FEW,,0.00,213.0,WeatherDisplay:10.37,2013-02-13 02:40:00,
2013-02-12 16:45:00,66.1,60.8,30.05,NNW,344,10.4,10.4,83,0.00,CLR,,0.00,285.0,WeatherDisplay:10.37,2013-02-13 02:45:00,
2013-02-12 16:50:00,66.1,61.1,30.05,ENE,63,8.1,8.1,84,0.00,CLR,,0.00,236.0,WeatherDisplay:10.37,2013-02-13 02:50:00,
2013-02-12 16:55:00,66.1,60.8,30.05,ENE,59,9.2,9.2,83,0.00,BKN,,0.00,120.0,WeatherDisplay:10.37,2013-02-13 02:55:00,
2013-02-12 17:00:00,66.1,60.8,30.05,ENE,74,11.5,11.5,83,0.00,SCT,,0.00,148.0,WeatherDisplay:10.37,2013-02-13 03:00:00,
2013-02-12 17:05:00,66.3,60.6,30.05,ENE,67,10.4,10.4,82,0.00,BKN,,0.00,100.0,WeatherDisplay:10.37,2013-02-13 03:05:00,
2013-02-12 17:10:00,66.2,60.5,30.06,East,86,5.8,5.8,82,0.00,BKN,,0.00,86.0,WeatherDisplay:10.37,2013-02-13 03:10:00,
2013-02-12 17:15:00,66.2,60.2,30.06,East,83,6.9,6.9,81,0.00,CLR,,0.00,53.0,WeatherDisplay:10.37,2013-02-13 03:15:00,
2013-02-12 17:20:00,66.2,60.2,30.06,NE,46,9.2,9.2,81,0.00,BKN,,0.00,62.0,WeatherDisplay:10.37,2013-02-13 03:20:00,
2013-02-12 17:25:00,66.1,60.1,30.06,East,85,6.9,6.9,81,0.00,BKN,,0.00,69.0,WeatherDisplay:10.37,2013-02-13 03:25:00,
2013-02-12 17:30:00,66.1,60.4,30.06,NE,49,9.2,9.2,82,0.00,BKN,,0.00,58.0,WeatherDisplay:10.37,2013-02-13 03:30:00,
2013-02-12 17:35:00,66.0,60.3,30.05,NE,34,11.5,11.5,82,0.00,BKN,,0.00,67.0,WeatherDisplay:10.37,2013-02-13 03:35:00,
2013-02-12 17:40:00,65.9,59.9,30.06,NNE,25,6.9,6.9,81,0.00,SCT,,0.00,62.0,WeatherDisplay:10.37,2013-02-13 03:40:00,
2013-02-12 17:45:00,65.8,59.8,30.06,NE,36,9.2,9.2,81,0.00,BKN,,0.00,39.0,WeatherDisplay:10.37,2013-02-13 03:45:00,
2013-02-12 17:50:00,65.6,59.6,30.06,ENE,64,8.1,8.1,81,0.00,BKN,,0.00,33.0,WeatherDisplay:10.37,2013-02-13 03:50:00,
2013-02-12 17:55:00,65.5,59.5,30.06,NE,46,8.1,8.1,81,0.00,SCT,,0.00,49.0,WeatherDisplay:10.37,2013-02-13 03:55:00,
2013-02-12 18:00:00,65.5,59.5,30.06,East,81,8.1,8.1,81,0.00,CLR,,0.00,47.0,WeatherDisplay:10.37,2013-02-13 04:00:00,
2013-02-12 18:05:00,65.6,59.6,30.06,North,5,12.7,12.7,81,0.00,SCT,,0.00,28.0,WeatherDisplay:10.37,2013-02-13 04:05:00,
2013-02-12 18:10:00,65.4,59.4,30.07,ENE,63,8.1,8.1,81,0.00,FEW,,0.00,28.0,WeatherDisplay:10.37,2013-02-13 04:10:00,
2013-02-12 18:15:00,65.1,59.5,30.07,ENE,68,10.4,10.4,82,0.00,SCT,,0.00,19.0,WeatherDisplay:10.37,2013-02-13 04:15:00,
2013-02-12 18:20:00,65.0,59.4,30.07,ENE,70,8.1,8.1,82,0.00,SCT,,0.00,11.0,WeatherDisplay:10.37,2013-02-13 04:20:00,
2013-02-12 18:25:00,64.9,59.3,30.07,NNE,21,10.4,10.4,82,0.00,CLR,,0.00,7.0,WeatherDisplay:10.37,2013-02-13 04:25:00,
2013-02-12 18:30:00,64.9,59.6,30.07,ENE,71,8.1,8.1,83,0.00,CLR,,0.00,0.0,WeatherDisplay:10.37,2013-02-13 04:30:00,
2013-02-12 18:35:00,64.9,59.6,30.07,NW,324,9.2,9.2,83,0.00,CLR,,0.00,0.0,WeatherDisplay:10.37,2013-02-13 04:35:00,
2013-02-12 18:40:00,64.9,59.6,30.07,NE,37,11.5,11.5,83,0.00,CLR,,0.00,0.0,WeatherDisplay:10.37,2013-02-13 04:40:00,
2013-02-12 18:45:00,64.8,59.2,30.07,East,101,6.9,6.9,82,0.00,CLR,,0.00,0.0,WeatherDisplay:10.37,2013-02-13 04:45:00,
2013-02-12 18:50:00,64.8,59.2,30.07,North,5,9.2,9.2,82,0.00,CLR,,0.00,0.0,WeatherDisplay:10.37,2013-02-13 04:50:00,
2013-02-12 18:55:00,64.8,58.8,30.07,NE,37,8.1,8.1,81,0.00,CLR,,0.00,0.0,WeatherDisplay:10.37,2013-02-13 04:55:00,
2013-02-12 19:00:00,64.9,58.9,30.08,ENE,63,4.6,4.7,81,0.00,CLR,,0.00,0.0,WeatherDisplay:10.37,2013-02-13 05:00:00,
2013-02-12 19:05:00,65.1,59.1,30.08,NE,45,6.9,6.9,81,0.00,CLR,,0.00,0.0,WeatherDisplay:10.37,2013-02-13 05:05:00,
2013-02-12 19:10:00,65.2,59.2,30.08,ENE,71,6.9,6.9,81,0.00,CLR,,0.00,0.0,WeatherDisplay:10.37,2013-02-13 05:10:00,
2013-02-12 19:15:00,65.2,58.9,30.08,ENE,57,5.8,5.8,80,0.00,CLR,,0.00,0.0,WeatherDisplay:10.37,2013-02-13 05:15:00,
2013-02-12 19:20:00,65.2,58.9,30.08,East,85,8.1,8.1,80,0.00,CLR,,0.00,0.0,WeatherDisplay:10.37,2013-02-13 05:20:00,
2013-02-12 19:25:00,65.1,58.8,30.08,ENE,71,4.6,4.6,80,0.00,CLR,,0.00,0.0,WeatherDisplay:10.37,2013-02-13 05:25:00,
2013-02-12 19:30:00,65.0,58.7,30.08,ENE,67,8.1,8.1,80,0.00,CLR,,0.00,0.0,WeatherDisplay:10.37,2013-02-13 05:30:00,
2013-02-12 19:35:00,65.0,58.7,30.08,NE,47,6.9,6.9,80,0.00,CLR,,0.00,0.0,WeatherDisplay:10.37,2013-02-13 05:35:00,
2013-02-12 19:40:00,65.0,58.7,30.08,NNE,20,8.1,8.1,80,0.00,CLR,,0.00,0.0,WeatherDisplay:10.37,2013-02-13 05:40:00,
2013-02-12 19:45:00,65.1,58.8,30.08,NNW,341,7.0,7.0,80,0.00,CLR,,0.00,0.0,WeatherDisplay:10.37,2013-02-13 05:45:00,
2013-02-12 19:50:00,65.1,58.8,30.08,ENE,76,8.1,8.1,80,0.00,CLR,,0.00,0.0,WeatherDisplay:10.37,2013-02-13 05:50:00,
2013-02-12 19:55:00,65.2,58.9,30.08,ENE,58,11.5,11.5,80,0.00,CLR,,0.00,0.0,WeatherDisplay:10.37,2013-02-13 05:55:00,
2013-02-12 20:00:00,65.1,58.8,30.08,NE,55,8.1,8.1,80,0.00,CLR,,0.00,0.0,WeatherDisplay:10.37,2013-02-13 06:00:00,
2013-02-12 20:05:00,65.0,58.7,30.08,ENE,74,8.0,8.0,80,0.00,CLR,,0.00,0.0,WeatherDisplay:10.37,2013-02-13 06:05:00,
2013-02-12 20:10:00,64.9,58.6,30.08,NNE,32,4.6,4.6,80,0.00,CLR,,0.00,0.0,WeatherDisplay:10.37,2013-02-13 06:10:00,
2013-02-12 20:15:00,64.8,58.5,30.09,North,5,6.0,6.0,80,0.00,CLR,,0.00,0.0,WeatherDisplay:10.37,2013-02-13 06:15:00,
2013-02-12 20:20:00,64.8,58.5,30.09,NE,51,9.2,9.2,80,0.00,CLR,,0.00,0.0,WeatherDisplay:10.37,2013-02-13 06:20:00,
2013-02-12 20:25:00,64.8,58.5,30.09,ENE,64,8.1,8.1,80,0.00,CLR,,0.00,0.0,WeatherDisplay:10.37,2013-02-13 06:25:00,
2013-02-12 20:30:00,64.8,58.5,30.09,ENE,63,9.0,9.0,80,0.00,CLR,,0.00,0.0,WeatherDisplay:10.37,2013-02-13 06:30:00,
2013-02-12 20:35:00,64.8,58.5,30.09,North,360,10.4,10.4,80,0.00,CLR,,0.00,0.0,WeatherDisplay:10.37,2013-02-13 06:35:00,
2013-02-12 20:40:00,64.7,58.4,30.09,East,80,11.5,11.5,80,0.00,CLR,,0.00,0.0,WeatherDisplay:10.37,2013-02-13 06:40:00,
2013-02-12 20:45:00,64.7,58.0,30.10,ENE,69,8.1,8.1,79,0.00,CLR,,0.00,0.0,WeatherDisplay:10.37,2013-02-13 06:45:00,
2013-02-12 20:50:00,64.6,57.9,30.10,NE,51,8.1,8.1,79,0.00,CLR,,0.00,0.0,WeatherDisplay:10.37,2013-02-13 06:50:00,
2013-02-12 20:55:00,64.6,57.9,30.10,NE,35,9.2,9.2,79,0.00,CLR,,0.00,0.0,WeatherDisplay:10.37,2013-02-13 06:55:00,
2013-02-12 21:00:00,64.4,57.7,30.10,NE,47,8.1,8.1,79,0.00,CLR,,0.00,0.0,WeatherDisplay:10.37,2013-02-13 07:00:00,
2013-02-12 21:05:00,64.4,57.7,30.10,NNE,16,9.2,9.2,79,0.00,CLR,,0.00,0.0,WeatherDisplay:10.37,2013-02-13 07:05:00,
2013-02-12 21:10:00,64.3,57.6,30.10,NE,55,8.1,8.1,79,0.00,CLR,,0.00,0.0,WeatherDisplay:10.37,2013-02-13 07:10:00,
2013-02-12 21:15:00,64.4,57.4,30.10,NNE,26,9.2,9.2,78,0.00,CLR,,0.00,0.0,WeatherDisplay:10.37,2013-02-13 07:15:00,
2013-02-12 21:20:00,64.4,57.7,30.10,NE,37,8.0,8.0,79,0.00,CLR,,0.00,0.0,WeatherDisplay:10.37,2013-02-13 07:20:00,
2013-02-12 21:25:00,64.3,57.6,30.10,NNE,29,8.1,8.1,79,0.00,CLR,,0.00,0.0,WeatherDisplay:10.37,2013-02-13 07:25:00,
2013-02-12 21:30:00,64.3,57.6,30.10,ENE,60,10.4,10.4,79,0.00,CLR,,0.00,0.0,WeatherDisplay:10.37,2013-02-13 07:30:00,
2013-02-12 21:35:00,64.2,57.2,30.10,NNW,346,6.9,6.9,78,0.00,CLR,,0.00,0.0,WeatherDisplay:10.37,2013-02-13 07:35:00,
2013-02-12 21:40:00,64.1,57.1,30.10,NE,41,10.4,10.4,78,0.00,CLR,,0.00,0.0,WeatherDisplay:10.37,2013-02-13 07:40:00,
2013-02-12 21:45:00,64.1,57.1,30.10,NNE,30,11.5,11.5,78,0.00,CLR,,0.00,0.0,WeatherDisplay:10.37,2013-02-13 07:45:00,
2013-02-12 21:50:00,64.1,57.1,30.10,NE,55,10.4,10.4,78,0.00,CLR,,0.00,0.0,WeatherDisplay:10.37,2013-02-13 07:50:00,
2013-02-12 21:55:00,64.1,57.1,30.10,NE,53,9.2,9.2,78,0.00,CLR,,0.00,0.0,WeatherDisplay:10.37,2013-02-13 07:55:00,
2013-02-12 22:00:00,64.0,57.0,30.10,NNW,338,9.2,9.2,78,0.00,CLR,,0.00,0.0,WeatherDisplay:10.37,2013-02-13 08:00:00,
2013-02-12 22:05:00,64.0,57.0,30.10,NE,40,9.2,9.2,78,0.00,CLR,,0.00,0.0,WeatherDisplay:10.37,2013-02-13 08:05:00,
2013-02-12 22:10:00,64.0,56.6,30.10,ENE,65,6.9,6.9,77,0.00,CLR,,0.00,0.0,WeatherDisplay:10.37,2013-02-13 08:10:00,
2013-02-12 22:15:00,63.9,56.5,30.10,NE,40,5.8,5.8,77,0.00,CLR,,0.00,0.0,WeatherDisplay:10.37,2013-02-13 08:15:00,
2013-02-12 22:20:00,64.0,56.3,30.10,NE,40,8.1,8.1,76,0.00,CLR,,0.00,0.0,WeatherDisplay:10.37,2013-02-13 08:20:00,
2013-02-12 22:25:00,63.9,56.2,30.10,ENE,69,9.2,9.2,76,0.00,CLR,,0.00,0.0,WeatherDisplay:10.37,2013-02-13 08:25:00,
2013-02-12 22:30:00,63.9,56.2,30.10,NNW,338,8.1,8.1,76,0.00,CLR,,0.00,0.0,WeatherDisplay:10.37,2013-02-13 08:30:00,
2013-02-12 22:35:00,63.9,56.2,30.10,NNE,32,6.9,6.9,76,0.00,CLR,,0.00,0.0,WeatherDisplay:10.37,2013-02-13 08:35:00,
2013-02-12 22:40:00,63.9,56.2,30.10,NNE,26,6.9,6.9,76,0.00,CLR,,0.00,0.0,WeatherDisplay:10.37,2013-02-13 08:40:00,
2013-02-12 22:45:00,63.9,56.2,30.10,NNE,22,11.5,11.5,76,0.00,CLR,,0.00,0.0,WeatherDisplay:10.37,2013-02-13 08:45:00,
2013-02-12 22:50:00,64.0,56.3,30.11,NNE,15,6.9,6.9,76,0.00,CLR,,0.00,0.0,WeatherDisplay:10.37,2013-02-13 08:50:00,
2013-02-12 22:55:00,64.0,56.3,30.10,NE,53,8.1,8.1,76,0.00,CLR,,0.00,0.0,WeatherDisplay:10.37,2013-02-13 08:55:00,
2013-02-12 23:00:00,64.0,56.3,30.10,NNE,18,5.8,5.8,76,0.00,CLR,,0.00,0.0,WeatherDisplay:10.37,2013-02-13 09:00:00,
2013-02-12 23:05:00,64.0,56.3,30.10,ENE,69,8.1,8.1,76,0.00,CLR,,0.00,0.0,WeatherDisplay:10.37,2013-02-13 09:05:00,
2013-02-12 23:10:00,64.1,56.7,30.10,NE,36,11.5,11.5,77,0.00,CLR,,0.00,0.0,WeatherDisplay:10.37,2013-02-13 09:10:00,
2013-02-12 23:15:00,64.1,56.7,30.10,North,5,8.1,8.1,77,0.00,CLR,,0.00,0.0,WeatherDisplay:10.37,2013-02-13 09:15:00,
2013-02-12 23:20:00,64.0,56.6,30.10,ESE,105,6.9,6.9,77,0.00,CLR,,0.00,0.0,WeatherDisplay:10.37,2013-02-13 09:20:00,
2013-02-12 23:25:00,64.0,56.6,30.11,NE,56,8.1,8.1,77,0.00,CLR,,0.00,0.0,WeatherDisplay:10.37,2013-02-13 09:25:00,
2013-02-12 23:30:00,63.9,56.2,30.10,ENE,67,11.5,11.5,76,0.00,CLR,,0.00,0.0,WeatherDisplay:10.37,2013-02-13 09:30:00,
2013-02-12 23:35:00,63.9,56.2,30.10,ENE,57,11.5,11.5,76,0.00,CLR,,0.00,0.0,WeatherDisplay:10.37,2013-02-13 09:35:00,
2013-02-12 23:40:00,63.8,56.1,30.10,NNE,19,10.4,10.4,76,0.00,CLR,,0.00,0.0,WeatherDisplay:10.37,2013-02-13 09:40:00,
2013-02-12 23:45:00,63.8,56.1,30.10,NNE,24,8.1,8.1,76,0.00,CLR,,0.00,0.0,WeatherDisplay:10.37,2013-02-13 09:45:00,
2013-02-12 23:50:00,63.8,56.1,30.10,North,360,4.6,4.6,76,0.00,CLR,,0.00,0.0,WeatherDisplay:10.37,2013-02-13 09:50:00,
2013-02-12 23:55:00,63.7,56.0,30.10,NNE,15,10.0,10.0,76,0.00,CLR,,0.00,0.0,WeatherDisplay:10.37,2013-02-13 09:55:00,